sensor_id;sensor_type;location;lat;lon;timestamp;temperature;humidity
43183;DHT22;28802;38.578;-0.066;2023-04-24T00:00:16;15.40;99.90
43183;DHT22;28802;38.578;-0.066;2023-04-24T00:02:43;15.50;99.90
43183;DHT22;28802;38.578;-0.066;2023-04-24T00:05:17;15.50;99.90
43183;DHT22;28802;38.578;-0.066;2023-04-24T00:07:44;15.40;99.90
43183;DHT22;28802;38.578;-0.066;2023-04-24T00:10:11;15.50;99.90
43183;DHT22;28802;38.578;-0.066;2023-04-24T00:12:38;15.60;99.90
43183;DHT22;28802;38.578;-0.066;2023-04-24T00:15:04;15.40;99.90
43183;DHT22;28802;38.578;-0.066;2023-04-24T00:17:30;15.20;99.90
43183;DHT22;28802;38.578;-0.066;2023-04-24T00:19:56;15.30;99.90
43183;DHT22;28802;38.578;-0.066;2023-04-24T00:22:29;15.20;99.90
43183;DHT22;28802;38.578;-0.066;2023-04-24T00:24:55;15.20;99.90
43183;DHT22;28802;38.578;-0.066;2023-04-24T00:27:21;15.30;99.90
43183;DHT22;28802;38.578;-0.066;2023-04-24T00:29:47;15.30;99.90
43183;DHT22;28802;38.578;-0.066;2023-04-24T00:32:13;15.50;99.90
43183;DHT22;28802;38.578;-0.066;2023-04-24T00:34:40;15.40;99.90
43183;DHT22;28802;38.578;-0.066;2023-04-24T00:37:06;15.40;99.90
43183;DHT22;28802;38.578;-0.066;2023-04-24T00:39:32;15.30;99.90
43183;DHT22;28802;38.578;-0.066;2023-04-24T00:41:58;15.30;99.90
43183;DHT22;28802;38.578;-0.066;2023-04-24T00:44:24;15.30;99.90
43183;DHT22;28802;38.578;-0.066;2023-04-24T00:46:51;15.30;99.90
43183;DHT22;28802;38.578;-0.066;2023-04-24T00:49:21;15.30;99.90
43183;DHT22;28802;38.578;-0.066;2023-04-24T00:51:48;15.40;99.90
43183;DHT22;28802;38.578;-0.066;2023-04-24T00:54:15;15.40;99.90
43183;DHT22;28802;38.578;-0.066;2023-04-24T00:56:42;15.40;99.90
43183;DHT22;28802;38.578;-0.066;2023-04-24T00:59:10;15.30;99.90
43183;DHT22;28802;38.578;-0.066;2023-04-24T01:01:36;15.10;99.90
43183;DHT22;28802;38.578;-0.066;2023-04-24T01:04:02;15.10;99.90
43183;DHT22;28802;38.578;-0.066;2023-04-24T01:06:29;15.20;99.90
43183;DHT22;28802;38.578;-0.066;2023-04-24T01:08:58;15.30;99.90
43183;DHT22;28802;38.578;-0.066;2023-04-24T01:11:25;15.30;99.90
43183;DHT22;28802;38.578;-0.066;2023-04-24T01:13:51;15.20;99.90
43183;DHT22;28802;38.578;-0.066;2023-04-24T01:16:18;15.20;99.90
43183;DHT22;28802;38.578;-0.066;2023-04-24T01:18:46;15.20;99.90
43183;DHT22;28802;38.578;-0.066;2023-04-24T01:21:14;15.30;99.90
43183;DHT22;28802;38.578;-0.066;2023-04-24T01:23:43;15.20;99.90
43183;DHT22;28802;38.578;-0.066;2023-04-24T01:26:10;15.20;99.90
43183;DHT22;28802;38.578;-0.066;2023-04-24T01:28:36;15.30;99.90
43183;DHT22;28802;38.578;-0.066;2023-04-24T01:31:05;15.40;99.90
43183;DHT22;28802;38.578;-0.066;2023-04-24T01:33:31;15.40;99.90
43183;DHT22;28802;38.578;-0.066;2023-04-24T01:35:57;15.30;99.90
43183;DHT22;28802;38.578;-0.066;2023-04-24T01:38:23;15.20;99.90
43183;DHT22;28802;38.578;-0.066;2023-04-24T01:40:50;15.00;99.90
43183;DHT22;28802;38.578;-0.066;2023-04-24T01:43:17;14.90;99.90
43183;DHT22;28802;38.578;-0.066;2023-04-24T01:45:43;15.00;99.90
43183;DHT22;28802;38.578;-0.066;2023-04-24T01:48:11;15.10;99.90
43183;DHT22;28802;38.578;-0.066;2023-04-24T01:50:38;15.10;99.90
43183;DHT22;28802;38.578;-0.066;2023-04-24T01:53:04;15.20;99.90
43183;DHT22;28802;38.578;-0.066;2023-04-24T01:55:30;15.20;99.90
43183;DHT22;28802;38.578;-0.066;2023-04-24T01:57:56;15.10;99.90
43183;DHT22;28802;38.578;-0.066;2023-04-24T02:00:23;15.10;99.90
43183;DHT22;28802;38.578;-0.066;2023-04-24T02:02:51;15.10;99.90
43183;DHT22;28802;38.578;-0.066;2023-04-24T02:05:17;15.20;99.90
43183;DHT22;28802;38.578;-0.066;2023-04-24T02:07:43;15.40;99.90
43183;DHT22;28802;38.578;-0.066;2023-04-24T02:10:12;15.40;99.90
43183;DHT22;28802;38.578;-0.066;2023-04-24T02:12:41;15.30;99.90
43183;DHT22;28802;38.578;-0.066;2023-04-24T02:15:08;15.30;99.90
43183;DHT22;28802;38.578;-0.066;2023-04-24T02:17:36;15.20;99.90
43183;DHT22;28802;38.578;-0.066;2023-04-24T02:20:04;15.30;99.90
43183;DHT22;28802;38.578;-0.066;2023-04-24T02:22:31;15.20;99.90
43183;DHT22;28802;38.578;-0.066;2023-04-24T02:25:01;15.20;99.90
43183;DHT22;28802;38.578;-0.066;2023-04-24T02:27:27;15.10;99.90
43183;DHT22;28802;38.578;-0.066;2023-04-24T02:29:53;15.00;99.90
43183;DHT22;28802;38.578;-0.066;2023-04-24T02:32:19;14.90;99.90
43183;DHT22;28802;38.578;-0.066;2023-04-24T02:34:44;14.80;99.90
43183;DHT22;28802;38.578;-0.066;2023-04-24T02:37:11;14.80;99.90
43183;DHT22;28802;38.578;-0.066;2023-04-24T02:39:37;14.90;99.90
43183;DHT22;28802;38.578;-0.066;2023-04-24T02:42:03;14.70;99.90
43183;DHT22;28802;38.578;-0.066;2023-04-24T02:44:30;14.70;99.90
43183;DHT22;28802;38.578;-0.066;2023-04-24T02:46:56;14.70;99.90
43183;DHT22;28802;38.578;-0.066;2023-04-24T02:49:22;15.00;99.90
43183;DHT22;28802;38.578;-0.066;2023-04-24T02:51:48;15.20;99.90
43183;DHT22;28802;38.578;-0.066;2023-04-24T02:54:14;15.20;99.90
43183;DHT22;28802;38.578;-0.066;2023-04-24T02:56:40;15.40;99.90
43183;DHT22;28802;38.578;-0.066;2023-04-24T02:59:07;15.40;99.90
43183;DHT22;28802;38.578;-0.066;2023-04-24T03:01:33;15.60;99.90
43183;DHT22;28802;38.578;-0.066;2023-04-24T03:03:59;15.70;99.90
43183;DHT22;28802;38.578;-0.066;2023-04-24T03:06:25;15.90;99.90
43183;DHT22;28802;38.578;-0.066;2023-04-24T03:08:52;15.80;99.90
43183;DHT22;28802;38.578;-0.066;2023-04-24T03:11:18;15.80;99.90
43183;DHT22;28802;38.578;-0.066;2023-04-24T03:13:45;15.70;99.90
43183;DHT22;28802;38.578;-0.066;2023-04-24T03:16:11;15.70;99.90
43183;DHT22;28802;38.578;-0.066;2023-04-24T03:18:37;15.80;99.90
43183;DHT22;28802;38.578;-0.066;2023-04-24T03:21:04;16.10;99.90
43183;DHT22;28802;38.578;-0.066;2023-04-24T03:23:31;16.40;99.90
43183;DHT22;28802;38.578;-0.066;2023-04-24T03:25:57;16.60;99.90
43183;DHT22;28802;38.578;-0.066;2023-04-24T03:28:24;16.60;99.90
43183;DHT22;28802;38.578;-0.066;2023-04-24T03:31:03;16.50;99.90
43183;DHT22;28802;38.578;-0.066;2023-04-24T03:33:32;16.50;99.90
43183;DHT22;28802;38.578;-0.066;2023-04-24T03:36:00;16.50;99.90
43183;DHT22;28802;38.578;-0.066;2023-04-24T03:38:33;16.60;99.90
43183;DHT22;28802;38.578;-0.066;2023-04-24T03:41:17;16.60;99.90
43183;DHT22;28802;38.578;-0.066;2023-04-24T03:43:49;16.60;99.90
43183;DHT22;28802;38.578;-0.066;2023-04-24T03:46:15;16.40;99.90
43183;DHT22;28802;38.578;-0.066;2023-04-24T03:48:47;16.30;99.90
43183;DHT22;28802;38.578;-0.066;2023-04-24T03:51:16;16.40;99.90
43183;DHT22;28802;38.578;-0.066;2023-04-24T03:53:45;16.50;99.90
43183;DHT22;28802;38.578;-0.066;2023-04-24T03:56:14;16.40;99.90
43183;DHT22;28802;38.578;-0.066;2023-04-24T03:58:41;16.50;99.90
43183;DHT22;28802;38.578;-0.066;2023-04-24T04:01:07;16.60;99.90
43183;DHT22;28802;38.578;-0.066;2023-04-24T04:03:46;16.60;99.90
43183;DHT22;28802;38.578;-0.066;2023-04-24T04:06:16;16.90;99.90
43183;DHT22;28802;38.578;-0.066;2023-04-24T04:08:42;17.10;99.90
43183;DHT22;28802;38.578;-0.066;2023-04-24T04:11:08;17.20;99.90
43183;DHT22;28802;38.578;-0.066;2023-04-24T04:13:34;17.50;99.90
43183;DHT22;28802;38.578;-0.066;2023-04-24T04:16:00;17.60;99.90
43183;DHT22;28802;38.578;-0.066;2023-04-24T04:18:26;17.70;99.90
43183;DHT22;28802;38.578;-0.066;2023-04-24T04:20:52;18.00;99.90
43183;DHT22;28802;38.578;-0.066;2023-04-24T04:23:18;18.20;99.90
43183;DHT22;28802;38.578;-0.066;2023-04-24T04:26:03;18.30;99.90
43183;DHT22;28802;38.578;-0.066;2023-04-24T04:28:41;18.10;99.90
43183;DHT22;28802;38.578;-0.066;2023-04-24T04:31:07;18.00;99.90
43183;DHT22;28802;38.578;-0.066;2023-04-24T04:33:34;17.80;99.90
43183;DHT22;28802;38.578;-0.066;2023-04-24T04:36:02;17.70;99.90
43183;DHT22;28802;38.578;-0.066;2023-04-24T04:38:30;17.70;99.90
43183;DHT22;28802;38.578;-0.066;2023-04-24T04:41:03;17.80;99.90
43183;DHT22;28802;38.578;-0.066;2023-04-24T04:43:32;17.90;99.90
43183;DHT22;28802;38.578;-0.066;2023-04-24T04:45:59;18.00;99.90
43183;DHT22;28802;38.578;-0.066;2023-04-24T04:48:57;18.40;99.90
43183;DHT22;28802;38.578;-0.066;2023-04-24T04:51:24;18.60;99.90
43183;DHT22;28802;38.578;-0.066;2023-04-24T04:53:50;18.70;99.90
43183;DHT22;28802;38.578;-0.066;2023-04-24T04:56:16;18.60;99.90
43183;DHT22;28802;38.578;-0.066;2023-04-24T04:58:45;18.50;99.90
43183;DHT22;28802;38.578;-0.066;2023-04-24T05:01:14;18.60;99.90
43183;DHT22;28802;38.578;-0.066;2023-04-24T05:03:43;18.50;99.90
43183;DHT22;28802;38.578;-0.066;2023-04-24T05:06:12;18.50;99.90
43183;DHT22;28802;38.578;-0.066;2023-04-24T05:08:39;18.50;99.90
43183;DHT22;28802;38.578;-0.066;2023-04-24T05:11:08;18.60;99.90
43183;DHT22;28802;38.578;-0.066;2023-04-24T05:13:34;18.80;99.90
43183;DHT22;28802;38.578;-0.066;2023-04-24T05:16:01;18.70;99.90
43183;DHT22;28802;38.578;-0.066;2023-04-24T05:18:29;18.60;99.90
43183;DHT22;28802;38.578;-0.066;2023-04-24T05:20:56;18.60;99.90
43183;DHT22;28802;38.578;-0.066;2023-04-24T05:23:23;18.70;99.90
43183;DHT22;28802;38.578;-0.066;2023-04-24T05:25:52;18.80;99.90
43183;DHT22;28802;38.578;-0.066;2023-04-24T05:28:19;18.90;99.90
43183;DHT22;28802;38.578;-0.066;2023-04-24T05:30:53;19.00;99.90
43183;DHT22;28802;38.578;-0.066;2023-04-24T05:33:20;19.30;99.90
43183;DHT22;28802;38.578;-0.066;2023-04-24T05:35:46;19.70;99.90
43183;DHT22;28802;38.578;-0.066;2023-04-24T05:38:13;20.00;99.90
43183;DHT22;28802;38.578;-0.066;2023-04-24T05:40:39;20.40;99.90
43183;DHT22;28802;38.578;-0.066;2023-04-24T05:43:05;20.70;99.90
43183;DHT22;28802;38.578;-0.066;2023-04-24T05:45:31;21.20;99.90
43183;DHT22;28802;38.578;-0.066;2023-04-24T05:47:57;21.50;99.90
43183;DHT22;28802;38.578;-0.066;2023-04-24T05:50:23;21.20;99.90
43183;DHT22;28802;38.578;-0.066;2023-04-24T05:52:49;21.30;99.90
43183;DHT22;28802;38.578;-0.066;2023-04-24T05:55:25;21.60;99.90
43183;DHT22;28802;38.578;-0.066;2023-04-24T05:57:52;22.00;99.90
43183;DHT22;28802;38.578;-0.066;2023-04-24T06:00:19;22.40;99.90
43183;DHT22;28802;38.578;-0.066;2023-04-24T06:02:57;22.50;99.90
43183;DHT22;28802;38.578;-0.066;2023-04-24T06:05:23;23.10;99.90
43183;DHT22;28802;38.578;-0.066;2023-04-24T06:07:51;23.30;99.90
43183;DHT22;28802;38.578;-0.066;2023-04-24T06:10:17;23.60;99.90
43183;DHT22;28802;38.578;-0.066;2023-04-24T06:12:44;24.30;99.90
43183;DHT22;28802;38.578;-0.066;2023-04-24T06:15:16;25.00;99.90
43183;DHT22;28802;38.578;-0.066;2023-04-24T06:18:08;25.90;99.90
43183;DHT22;28802;38.578;-0.066;2023-04-24T06:20:36;26.50;99.90
43183;DHT22;28802;38.578;-0.066;2023-04-24T06:23:02;26.90;99.90
43183;DHT22;28802;38.578;-0.066;2023-04-24T06:25:28;27.00;99.90
43183;DHT22;28802;38.578;-0.066;2023-04-24T06:27:55;27.50;99.90
43183;DHT22;28802;38.578;-0.066;2023-04-24T06:30:21;27.90;99.90
43183;DHT22;28802;38.578;-0.066;2023-04-24T06:32:47;28.70;99.90
43183;DHT22;28802;38.578;-0.066;2023-04-24T06:35:14;29.20;99.90
43183;DHT22;28802;38.578;-0.066;2023-04-24T06:37:42;29.50;99.90
43183;DHT22;28802;38.578;-0.066;2023-04-24T06:40:08;29.80;99.90
43183;DHT22;28802;38.578;-0.066;2023-04-24T06:42:35;30.40;99.90
43183;DHT22;28802;38.578;-0.066;2023-04-24T06:45:03;31.10;99.90
43183;DHT22;28802;38.578;-0.066;2023-04-24T06:47:29;31.70;99.90
43183;DHT22;28802;38.578;-0.066;2023-04-24T06:49:55;32.40;99.90
43183;DHT22;28802;38.578;-0.066;2023-04-24T06:52:22;32.80;99.90
43183;DHT22;28802;38.578;-0.066;2023-04-24T06:54:47;33.20;99.90
43183;DHT22;28802;38.578;-0.066;2023-04-24T06:57:13;33.30;99.90
43183;DHT22;28802;38.578;-0.066;2023-04-24T06:59:42;33.70;99.90
43183;DHT22;28802;38.578;-0.066;2023-04-24T07:02:08;33.90;98.10
43183;DHT22;28802;38.578;-0.066;2023-04-24T07:04:34;34.10;98.50
43183;DHT22;28802;38.578;-0.066;2023-04-24T07:07:00;34.50;97.60
43183;DHT22;28802;38.578;-0.066;2023-04-24T07:09:26;34.70;96.20
43183;DHT22;28802;38.578;-0.066;2023-04-24T07:11:53;33.30;97.00
43183;DHT22;28802;38.578;-0.066;2023-04-24T07:14:21;32.10;98.10
43183;DHT22;28802;38.578;-0.066;2023-04-24T07:16:47;32.30;98.30
43183;DHT22;28802;38.578;-0.066;2023-04-24T07:19:13;32.90;97.30
43183;DHT22;28802;38.578;-0.066;2023-04-24T07:21:39;33.40;98.60
43183;DHT22;28802;38.578;-0.066;2023-04-24T07:24:05;34.00;98.30
43183;DHT22;28802;38.578;-0.066;2023-04-24T07:26:34;34.50;97.60
43183;DHT22;28802;38.578;-0.066;2023-04-24T07:29:00;34.90;95.20
43183;DHT22;28802;38.578;-0.066;2023-04-24T07:31:26;35.10;94.10
43183;DHT22;28802;38.578;-0.066;2023-04-24T07:33:52;34.60;94.60
43183;DHT22;28802;38.578;-0.066;2023-04-24T07:36:18;33.90;95.00
43183;DHT22;28802;38.578;-0.066;2023-04-24T07:38:45;32.80;96.30
43183;DHT22;28802;38.578;-0.066;2023-04-24T07:41:12;32.30;98.30
43183;DHT22;28802;38.578;-0.066;2023-04-24T07:43:38;33.00;96.60
43183;DHT22;28802;38.578;-0.066;2023-04-24T07:46:04;33.30;97.70
43183;DHT22;28802;38.578;-0.066;2023-04-24T07:48:30;32.90;99.20
43183;DHT22;28802;38.578;-0.066;2023-04-24T07:50:56;32.10;99.90
43183;DHT22;28802;38.578;-0.066;2023-04-24T07:53:22;32.20;99.30
43183;DHT22;28802;38.578;-0.066;2023-04-24T07:55:48;31.60;99.80
43183;DHT22;28802;38.578;-0.066;2023-04-24T07:58:14;31.80;98.50
43183;DHT22;28802;38.578;-0.066;2023-04-24T08:00:40;32.50;97.90
43183;DHT22;28802;38.578;-0.066;2023-04-24T08:03:06;32.30;99.30
43183;DHT22;28802;38.578;-0.066;2023-04-24T08:05:32;29.70;99.90
43183;DHT22;28802;38.578;-0.066;2023-04-24T08:07:58;29.60;99.90
43183;DHT22;28802;38.578;-0.066;2023-04-24T08:10:25;29.30;99.90
43183;DHT22;28802;38.578;-0.066;2023-04-24T08:12:50;29.90;99.90
43183;DHT22;28802;38.578;-0.066;2023-04-24T08:15:17;29.90;99.90
43183;DHT22;28802;38.578;-0.066;2023-04-24T08:17:43;28.40;99.90
43183;DHT22;28802;38.578;-0.066;2023-04-24T08:20:10;28.60;99.90
43183;DHT22;28802;38.578;-0.066;2023-04-24T08:22:39;29.40;99.90
43183;DHT22;28802;38.578;-0.066;2023-04-24T08:25:06;30.30;99.90
43183;DHT22;28802;38.578;-0.066;2023-04-24T08:27:32;31.10;99.90
43183;DHT22;28802;38.578;-0.066;2023-04-24T08:29:58;30.70;99.90
43183;DHT22;28802;38.578;-0.066;2023-04-24T08:32:25;30.70;99.90
43183;DHT22;28802;38.578;-0.066;2023-04-24T08:34:57;30.00;99.90
43183;DHT22;28802;38.578;-0.066;2023-04-24T08:37:23;28.70;99.90
43183;DHT22;28802;38.578;-0.066;2023-04-24T08:39:49;28.00;99.90
43183;DHT22;28802;38.578;-0.066;2023-04-24T08:42:17;27.50;99.90
43183;DHT22;28802;38.578;-0.066;2023-04-24T08:44:43;27.60;99.90
43183;DHT22;28802;38.578;-0.066;2023-04-24T08:47:11;28.00;99.90
43183;DHT22;28802;38.578;-0.066;2023-04-24T08:49:37;27.60;99.90
43183;DHT22;28802;38.578;-0.066;2023-04-24T08:52:05;27.50;99.90
43183;DHT22;28802;38.578;-0.066;2023-04-24T08:54:33;26.90;99.90
43183;DHT22;28802;38.578;-0.066;2023-04-24T08:57:01;27.00;99.90
43183;DHT22;28802;38.578;-0.066;2023-04-24T08:59:28;27.30;99.90
43183;DHT22;28802;38.578;-0.066;2023-04-24T09:01:55;27.60;99.90
43183;DHT22;28802;38.578;-0.066;2023-04-24T09:04:22;28.10;99.90
43183;DHT22;28802;38.578;-0.066;2023-04-24T09:06:56;27.30;99.90
43183;DHT22;28802;38.578;-0.066;2023-04-24T09:09:23;26.90;99.90
43183;DHT22;28802;38.578;-0.066;2023-04-24T09:11:50;27.10;99.90
43183;DHT22;28802;38.578;-0.066;2023-04-24T09:14:17;26.80;99.90
43183;DHT22;28802;38.578;-0.066;2023-04-24T09:16:43;26.60;99.90
43183;DHT22;28802;38.578;-0.066;2023-04-24T09:19:09;27.00;99.90
43183;DHT22;28802;38.578;-0.066;2023-04-24T09:21:35;25.70;99.90
43183;DHT22;28802;38.578;-0.066;2023-04-24T09:24:07;25.60;99.90
43183;DHT22;28802;38.578;-0.066;2023-04-24T09:26:36;25.70;99.90
43183;DHT22;28802;38.578;-0.066;2023-04-24T09:29:03;25.40;99.90
43183;DHT22;28802;38.578;-0.066;2023-04-24T09:31:30;25.30;99.90
43183;DHT22;28802;38.578;-0.066;2023-04-24T09:34:04;24.90;99.90
43183;DHT22;28802;38.578;-0.066;2023-04-24T09:36:35;24.50;99.90
43183;DHT22;28802;38.578;-0.066;2023-04-24T09:39:09;24.50;99.90
43183;DHT22;28802;38.578;-0.066;2023-04-24T09:44:21;25.00;99.90
43183;DHT22;28802;38.578;-0.066;2023-04-24T09:47:08;24.60;99.90
43183;DHT22;28802;38.578;-0.066;2023-04-24T09:49:35;24.80;99.90
43183;DHT22;28802;38.578;-0.066;2023-04-24T09:52:08;24.30;99.90
43183;DHT22;28802;38.578;-0.066;2023-04-24T09:54:34;23.20;99.90
43183;DHT22;28802;38.578;-0.066;2023-04-24T09:57:02;23.30;99.90
43183;DHT22;28802;38.578;-0.066;2023-04-24T09:59:29;24.00;99.90
43183;DHT22;28802;38.578;-0.066;2023-04-24T10:01:55;24.30;99.90
43183;DHT22;28802;38.578;-0.066;2023-04-24T10:04:24;23.60;99.90
43183;DHT22;28802;38.578;-0.066;2023-04-24T10:06:53;23.50;99.90
43183;DHT22;28802;38.578;-0.066;2023-04-24T10:09:25;24.00;99.90
43183;DHT22;28802;38.578;-0.066;2023-04-24T10:11:52;23.40;99.90
43183;DHT22;28802;38.578;-0.066;2023-04-24T10:14:20;23.70;99.90
43183;DHT22;28802;38.578;-0.066;2023-04-24T10:16:48;23.20;99.90
43183;DHT22;28802;38.578;-0.066;2023-04-24T10:19:15;23.20;99.90
43183;DHT22;28802;38.578;-0.066;2023-04-24T10:21:43;23.50;99.90
43183;DHT22;28802;38.578;-0.066;2023-04-24T10:24:16;23.10;99.90
43183;DHT22;28802;38.578;-0.066;2023-04-24T10:26:44;23.30;99.90
43183;DHT22;28802;38.578;-0.066;2023-04-24T10:29:12;23.30;99.90
43183;DHT22;28802;38.578;-0.066;2023-04-24T10:31:38;23.20;99.90
43183;DHT22;28802;38.578;-0.066;2023-04-24T10:34:06;23.10;99.90
43183;DHT22;28802;38.578;-0.066;2023-04-24T10:36:38;23.50;99.90
43183;DHT22;28802;38.578;-0.066;2023-04-24T10:39:08;23.20;99.90
43183;DHT22;28802;38.578;-0.066;2023-04-24T10:41:37;23.20;99.90
43183;DHT22;28802;38.578;-0.066;2023-04-24T10:44:05;22.90;99.90
43183;DHT22;28802;38.578;-0.066;2023-04-24T10:46:31;23.00;99.90
43183;DHT22;28802;38.578;-0.066;2023-04-24T10:48:57;23.10;99.90
43183;DHT22;28802;38.578;-0.066;2023-04-24T10:51:45;23.40;99.90
43183;DHT22;28802;38.578;-0.066;2023-04-24T10:54:27;23.20;99.90
43183;DHT22;28802;38.578;-0.066;2023-04-24T10:59:46;23.30;99.90
43183;DHT22;28802;38.578;-0.066;2023-04-24T11:02:16;23.50;99.90
43183;DHT22;28802;38.578;-0.066;2023-04-24T11:04:42;23.40;99.90
43183;DHT22;28802;38.578;-0.066;2023-04-24T11:07:12;23.60;99.90
43183;DHT22;28802;38.578;-0.066;2023-04-24T11:09:38;23.20;99.90
43183;DHT22;28802;38.578;-0.066;2023-04-24T11:12:08;23.40;99.90
43183;DHT22;28802;38.578;-0.066;2023-04-24T11:17:36;23.20;99.90
43183;DHT22;28802;38.578;-0.066;2023-04-24T11:22:39;22.60;99.90
43183;DHT22;28802;38.578;-0.066;2023-04-24T11:25:09;22.60;99.90
43183;DHT22;28802;38.578;-0.066;2023-04-24T11:27:44;22.70;99.90
43183;DHT22;28802;38.578;-0.066;2023-04-24T11:30:18;22.60;99.90
43183;DHT22;28802;38.578;-0.066;2023-04-24T11:32:48;22.50;99.90
43183;DHT22;28802;38.578;-0.066;2023-04-24T11:35:22;22.50;99.90
43183;DHT22;28802;38.578;-0.066;2023-04-24T11:37:52;22.60;99.90
43183;DHT22;28802;38.578;-0.066;2023-04-24T11:40:21;22.40;99.90
43183;DHT22;28802;38.578;-0.066;2023-04-24T11:42:49;22.20;99.90
43183;DHT22;28802;38.578;-0.066;2023-04-24T11:45:22;22.40;99.90
43183;DHT22;28802;38.578;-0.066;2023-04-24T11:47:49;22.50;99.90
43183;DHT22;28802;38.578;-0.066;2023-04-24T11:50:20;22.00;99.90
43183;DHT22;28802;38.578;-0.066;2023-04-24T11:52:48;22.10;99.90
43183;DHT22;28802;38.578;-0.066;2023-04-24T11:57:50;22.10;99.90
43183;DHT22;28802;38.578;-0.066;2023-04-24T12:00:31;22.20;99.90
43183;DHT22;28802;38.578;-0.066;2023-04-24T12:03:10;22.10;99.90
43183;DHT22;28802;38.578;-0.066;2023-04-24T12:05:37;22.40;99.90
43183;DHT22;28802;38.578;-0.066;2023-04-24T12:08:04;22.90;99.90
43183;DHT22;28802;38.578;-0.066;2023-04-24T12:10:31;23.60;99.90
43183;DHT22;28802;38.578;-0.066;2023-04-24T12:12:59;23.70;99.90
43183;DHT22;28802;38.578;-0.066;2023-04-24T12:15:26;23.10;99.90
43183;DHT22;28802;38.578;-0.066;2023-04-24T12:17:53;22.80;99.90
43183;DHT22;28802;38.578;-0.066;2023-04-24T12:20:29;22.40;99.90
43183;DHT22;28802;38.578;-0.066;2023-04-24T12:22:57;22.00;99.90
43183;DHT22;28802;38.578;-0.066;2023-04-24T12:25:26;22.00;99.90
43183;DHT22;28802;38.578;-0.066;2023-04-24T12:27:54;22.10;99.90
43183;DHT22;28802;38.578;-0.066;2023-04-24T12:30:22;22.80;99.90
43183;DHT22;28802;38.578;-0.066;2023-04-24T12:32:51;22.90;99.90
43183;DHT22;28802;38.578;-0.066;2023-04-24T12:35:22;22.50;99.90
43183;DHT22;28802;38.578;-0.066;2023-04-24T12:37:48;22.00;99.90
43183;DHT22;28802;38.578;-0.066;2023-04-24T12:40:17;21.60;99.90
43183;DHT22;28802;38.578;-0.066;2023-04-24T12:42:45;22.00;99.90
43183;DHT22;28802;38.578;-0.066;2023-04-24T12:45:12;22.00;99.90
43183;DHT22;28802;38.578;-0.066;2023-04-24T12:47:39;21.60;99.90
43183;DHT22;28802;38.578;-0.066;2023-04-24T12:50:07;21.20;99.90
43183;DHT22;28802;38.578;-0.066;2023-04-24T12:52:33;21.70;99.90
43183;DHT22;28802;38.578;-0.066;2023-04-24T12:55:00;22.30;99.90
43183;DHT22;28802;38.578;-0.066;2023-04-24T12:57:29;22.60;99.90
43183;DHT22;28802;38.578;-0.066;2023-04-24T12:59:59;22.60;99.90
43183;DHT22;28802;38.578;-0.066;2023-04-24T13:02:26;21.90;99.90
43183;DHT22;28802;38.578;-0.066;2023-04-24T13:04:57;21.70;99.90
43183;DHT22;28802;38.578;-0.066;2023-04-24T13:07:24;21.60;99.90
43183;DHT22;28802;38.578;-0.066;2023-04-24T13:09:57;21.10;99.90
43183;DHT22;28802;38.578;-0.066;2023-04-24T13:12:26;21.20;99.90
43183;DHT22;28802;38.578;-0.066;2023-04-24T13:14:53;21.50;99.90
43183;DHT22;28802;38.578;-0.066;2023-04-24T13:17:19;22.00;99.90
43183;DHT22;28802;38.578;-0.066;2023-04-24T13:19:50;22.00;99.90
43183;DHT22;28802;38.578;-0.066;2023-04-24T13:22:16;21.60;99.90
43183;DHT22;28802;38.578;-0.066;2023-04-24T13:24:44;21.20;99.90
43183;DHT22;28802;38.578;-0.066;2023-04-24T13:27:10;21.10;99.90
43183;DHT22;28802;38.578;-0.066;2023-04-24T13:29:37;21.10;99.90
43183;DHT22;28802;38.578;-0.066;2023-04-24T13:32:03;21.20;99.90
43183;DHT22;28802;38.578;-0.066;2023-04-24T13:34:29;21.10;99.90
43183;DHT22;28802;38.578;-0.066;2023-04-24T13:36:56;21.20;99.90
43183;DHT22;28802;38.578;-0.066;2023-04-24T13:39:23;20.80;99.90
43183;DHT22;28802;38.578;-0.066;2023-04-24T13:41:49;20.90;99.90
43183;DHT22;28802;38.578;-0.066;2023-04-24T13:44:16;20.60;99.90
43183;DHT22;28802;38.578;-0.066;2023-04-24T13:46:44;20.50;99.90
43183;DHT22;28802;38.578;-0.066;2023-04-24T13:49:14;20.70;99.90
43183;DHT22;28802;38.578;-0.066;2023-04-24T13:51:41;20.90;99.90
43183;DHT22;28802;38.578;-0.066;2023-04-24T13:54:07;20.90;99.90
43183;DHT22;28802;38.578;-0.066;2023-04-24T13:56:33;21.00;99.90
43183;DHT22;28802;38.578;-0.066;2023-04-24T13:58:59;20.80;99.90
43183;DHT22;28802;38.578;-0.066;2023-04-24T14:01:25;20.60;99.90
43183;DHT22;28802;38.578;-0.066;2023-04-24T14:03:51;20.50;99.90
43183;DHT22;28802;38.578;-0.066;2023-04-24T14:06:19;20.60;99.90
43183;DHT22;28802;38.578;-0.066;2023-04-24T14:08:45;20.80;99.90
43183;DHT22;28802;38.578;-0.066;2023-04-24T14:11:11;20.60;99.90
43183;DHT22;28802;38.578;-0.066;2023-04-24T14:13:37;20.90;99.90
43183;DHT22;28802;38.578;-0.066;2023-04-24T14:16:04;20.90;99.90
43183;DHT22;28802;38.578;-0.066;2023-04-24T14:18:30;21.00;99.90
43183;DHT22;28802;38.578;-0.066;2023-04-24T14:20:56;21.00;99.90
43183;DHT22;28802;38.578;-0.066;2023-04-24T14:23:22;21.10;99.90
43183;DHT22;28802;38.578;-0.066;2023-04-24T14:25:48;21.10;99.90
43183;DHT22;28802;38.578;-0.066;2023-04-24T14:28:17;20.80;99.90
43183;DHT22;28802;38.578;-0.066;2023-04-24T14:30:43;20.70;99.90
43183;DHT22;28802;38.578;-0.066;2023-04-24T14:33:09;20.80;99.90
43183;DHT22;28802;38.578;-0.066;2023-04-24T14:35:36;20.90;99.90
43183;DHT22;28802;38.578;-0.066;2023-04-24T14:38:02;20.80;99.90
43183;DHT22;28802;38.578;-0.066;2023-04-24T14:40:28;20.70;99.90
43183;DHT22;28802;38.578;-0.066;2023-04-24T14:42:53;20.60;99.90
43183;DHT22;28802;38.578;-0.066;2023-04-24T14:45:19;20.60;99.90
43183;DHT22;28802;38.578;-0.066;2023-04-24T14:47:45;20.90;99.90
43183;DHT22;28802;38.578;-0.066;2023-04-24T14:50:11;21.10;99.90
43183;DHT22;28802;38.578;-0.066;2023-04-24T14:52:38;20.90;99.90
43183;DHT22;28802;38.578;-0.066;2023-04-24T14:55:05;20.90;99.90
43183;DHT22;28802;38.578;-0.066;2023-04-24T14:57:33;20.70;99.90
43183;DHT22;28802;38.578;-0.066;2023-04-24T14:59:59;20.60;99.90
43183;DHT22;28802;38.578;-0.066;2023-04-24T15:02:25;20.50;99.90
43183;DHT22;28802;38.578;-0.066;2023-04-24T15:04:50;20.60;99.90
43183;DHT22;28802;38.578;-0.066;2023-04-24T15:07:16;20.70;99.90
43183;DHT22;28802;38.578;-0.066;2023-04-24T15:09:42;20.80;99.90
43183;DHT22;28802;38.578;-0.066;2023-04-24T15:12:08;20.90;99.90
43183;DHT22;28802;38.578;-0.066;2023-04-24T15:14:35;20.70;99.90
43183;DHT22;28802;38.578;-0.066;2023-04-24T15:17:01;20.70;99.90
43183;DHT22;28802;38.578;-0.066;2023-04-24T15:19:27;20.80;99.90
43183;DHT22;28802;38.578;-0.066;2023-04-24T15:21:53;20.80;99.90
43183;DHT22;28802;38.578;-0.066;2023-04-24T15:24:19;20.80;99.90
43183;DHT22;28802;38.578;-0.066;2023-04-24T15:26:44;20.80;99.90
43183;DHT22;28802;38.578;-0.066;2023-04-24T15:29:10;20.60;99.90
43183;DHT22;28802;38.578;-0.066;2023-04-24T15:31:36;20.60;99.90